createdAt,value
2023-05-13T00:00:19.167Z,964.12
2023-05-13T00:01:19.161Z,964.13
2023-05-13T00:02:18.998Z,964.06
2023-05-13T00:03:19.047Z,964.09
2023-05-13T00:04:18.916Z,964.11
2023-05-13T00:05:18.930Z,964.14
2023-05-13T00:06:18.927Z,964.10
2023-05-13T00:07:18.907Z,964.17
2023-05-13T00:08:18.891Z,964.13
2023-05-13T00:09:18.879Z,964.12
2023-05-13T00:10:19.113Z,964.13
2023-05-13T00:11:18.849Z,964.14
2023-05-13T00:12:18.849Z,964.13
2023-05-13T00:13:18.843Z,964.12
2023-05-13T00:14:18.853Z,964.11
2023-05-13T00:15:18.820Z,964.12
2023-05-13T00:16:18.790Z,964.17
2023-05-13T00:17:18.784Z,964.12
2023-05-13T00:18:18.787Z,964.12
2023-05-13T00:19:18.772Z,964.09
2023-05-13T00:20:18.875Z,964.11
2023-05-13T00:21:18.752Z,964.10
2023-05-13T00:22:18.713Z,964.10
2023-05-13T00:23:18.713Z,964.09
2023-05-13T00:24:18.752Z,964.09
2023-05-13T00:25:18.714Z,964.13
2023-05-13T00:26:18.682Z,964.13
2023-05-13T00:27:18.680Z,964.13
2023-05-13T00:28:18.673Z,964.15
2023-05-13T00:29:18.677Z,964.10
2023-05-13T00:30:18.707Z,964.12
2023-05-13T00:31:18.673Z,964.11
2023-05-13T00:32:18.668Z,964.13
2023-05-13T00:33:18.652Z,964.09
2023-05-13T00:34:18.596Z,964.12
2023-05-13T00:35:18.630Z,964.12
2023-05-13T00:36:18.570Z,964.08
2023-05-13T00:37:18.557Z,964.09
2023-05-13T00:38:18.552Z,964.07
2023-05-13T00:39:18.557Z,964.08
2023-05-13T00:40:18.540Z,964.12
2023-05-13T00:41:18.520Z,964.12
2023-05-13T00:42:18.518Z,964.10
2023-05-13T00:43:18.487Z,964.10
2023-05-13T00:44:18.486Z,964.09
2023-05-13T00:45:18.481Z,964.05
2023-05-13T00:46:18.502Z,964.07
2023-05-13T00:47:18.496Z,964.10
2023-05-13T00:48:18.433Z,964.08
2023-05-13T00:49:18.426Z,964.07
2023-05-13T00:50:18.492Z,964.12
2023-05-13T00:51:18.424Z,964.10
2023-05-13T00:52:18.422Z,964.12
2023-05-13T00:53:18.461Z,964.09
2023-05-13T00:54:18.422Z,964.09
2023-05-13T00:55:18.370Z,964.12
2023-05-13T00:56:18.347Z,964.14
2023-05-13T00:57:18.332Z,964.11
2023-05-13T00:58:18.354Z,964.07
2023-05-13T00:59:18.314Z,964.12
2023-05-13T01:00:18.469Z,964.09
2023-05-13T01:01:18.319Z,964.09
2023-05-13T01:02:18.296Z,964.13
2023-05-13T01:03:18.343Z,964.06
2023-05-13T01:04:18.244Z,964.08
2023-05-13T01:05:18.243Z,964.07
2023-05-13T01:06:18.233Z,964.08
2023-05-13T01:07:18.228Z,964.10
2023-05-13T01:08:18.201Z,964.08
2023-05-13T01:09:18.202Z,964.08
2023-05-13T01:10:18.175Z,964.07
2023-05-13T01:11:18.179Z,964.11
2023-05-13T01:12:18.162Z,964.04
2023-05-13T01:13:18.159Z,964.06
2023-05-13T01:14:18.149Z,964.07
2023-05-13T01:15:18.129Z,964.11
2023-05-13T01:16:18.164Z,964.10
2023-05-13T01:17:18.110Z,964.11
2023-05-13T01:18:18.095Z,964.16
2023-05-13T01:19:18.096Z,964.19
2023-05-13T01:20:18.077Z,964.15
2023-05-13T01:21:18.060Z,964.17
2023-05-13T01:22:18.071Z,964.11
2023-05-13T01:23:18.056Z,964.17
2023-05-13T01:24:18.079Z,964.16
2023-05-13T01:25:18.015Z,964.13
2023-05-13T01:26:18.014Z,964.13
2023-05-13T01:27:18.003Z,964.15
2023-05-13T01:28:17.982Z,964.13
2023-05-13T01:29:17.997Z,964.17
2023-05-13T01:30:17.951Z,964.18
2023-05-13T01:31:18.020Z,964.19
2023-05-13T01:32:17.938Z,964.19
2023-05-13T01:33:17.945Z,964.20
2023-05-13T01:34:17.918Z,964.18
2023-05-13T01:35:17.906Z,964.18
2023-05-13T01:36:17.898Z,964.19
2023-05-13T01:37:17.916Z,964.23
2023-05-13T01:38:17.861Z,964.19
2023-05-13T01:39:17.890Z,964.16
2023-05-13T01:40:31.105Z,964.14
2023-05-13T01:41:17.856Z,964.16
2023-05-13T01:42:17.866Z,964.15
2023-05-13T01:43:17.802Z,964.17
2023-05-13T01:44:17.807Z,964.18
2023-05-13T01:45:17.790Z,964.17
2023-05-13T01:46:17.795Z,964.14
2023-05-13T01:47:17.761Z,964.21
2023-05-13T01:48:17.746Z,964.20
2023-05-13T01:49:17.743Z,964.21
2023-05-13T01:50:17.758Z,964.19
2023-05-13T01:51:17.725Z,964.23
2023-05-13T01:52:17.717Z,964.20
2023-05-13T01:53:17.755Z,964.20
2023-05-13T01:54:17.692Z,964.19
2023-05-13T01:55:17.728Z,964.22
2023-05-13T01:56:17.660Z,964.17
2023-05-13T01:57:17.654Z,964.16
2023-05-13T01:58:17.639Z,964.16
2023-05-13T01:59:17.637Z,964.17
2023-05-13T02:00:17.613Z,964.19
2023-05-13T02:01:18.398Z,964.20
2023-05-13T02:02:17.625Z,964.22
2023-05-13T02:03:17.629Z,964.21
2023-05-13T02:04:17.569Z,964.19
2023-05-13T02:05:17.591Z,964.18
2023-05-13T02:06:17.558Z,964.20
2023-05-13T02:07:17.536Z,964.24
2023-05-13T02:08:17.537Z,964.22
2023-05-13T02:09:17.525Z,964.20
2023-05-13T02:10:17.509Z,964.19
2023-05-13T02:11:17.496Z,964.20
2023-05-13T02:12:17.525Z,964.20
2023-05-13T02:13:17.454Z,964.24
2023-05-13T02:14:17.461Z,964.22
2023-05-13T02:15:17.440Z,964.23
2023-05-13T02:16:17.511Z,964.22
2023-05-13T02:17:17.427Z,964.22
2023-05-13T02:18:17.417Z,964.23
2023-05-13T02:19:17.392Z,964.23
2023-05-13T02:20:17.392Z,964.26
2023-05-13T02:21:17.367Z,964.23
2023-05-13T02:22:17.361Z,964.25
2023-05-13T02:23:17.374Z,964.24
2023-05-13T02:24:17.339Z,964.25
2023-05-13T02:25:17.350Z,964.24
2023-05-13T02:26:17.301Z,964.22
2023-05-13T02:27:17.324Z,964.22
2023-05-13T02:28:17.313Z,964.20
2023-05-13T02:29:17.279Z,964.19
2023-05-13T02:30:17.286Z,964.15
2023-05-13T02:31:17.288Z,964.20
2023-05-13T02:32:17.304Z,964.17
2023-05-13T02:33:17.284Z,964.20
2023-05-13T02:34:17.239Z,964.18
2023-05-13T02:35:17.226Z,964.20
2023-05-13T02:36:17.195Z,964.18
2023-05-13T02:37:17.290Z,964.18
2023-05-13T02:38:17.185Z,964.24
2023-05-13T02:39:17.180Z,964.19
2023-05-13T02:40:17.177Z,964.20
2023-05-13T02:41:17.172Z,964.20
2023-05-13T02:42:17.149Z,964.19
2023-05-13T02:43:17.127Z,964.19
2023-05-13T02:44:17.114Z,964.15
2023-05-13T02:45:17.121Z,964.17
2023-05-13T02:46:17.146Z,964.15
2023-05-13T02:47:17.104Z,964.12
2023-05-13T02:48:17.124Z,964.17
2023-05-13T02:49:17.077Z,964.15
2023-05-13T02:50:17.048Z,964.10
2023-05-13T02:51:17.034Z,964.13
2023-05-13T02:52:17.033Z,964.13
2023-05-13T02:53:17.010Z,964.13
2023-05-13T02:54:17.019Z,964.07
2023-05-13T02:55:17.066Z,964.09
2023-05-13T02:56:17.004Z,964.10
2023-05-13T02:57:16.965Z,964.13
2023-05-13T02:58:16.969Z,964.12
2023-05-13T02:59:16.993Z,964.08
2023-05-13T03:00:16.946Z,964.10
2023-05-13T03:01:16.967Z,964.11
2023-05-13T03:02:16.961Z,964.12
2023-05-13T03:03:16.936Z,964.10
2023-05-13T03:04:16.908Z,964.10
2023-05-13T03:05:16.905Z,964.07
2023-05-13T03:06:16.884Z,964.06
2023-05-13T03:07:16.875Z,964.04
2023-05-13T03:08:16.876Z,964.06
2023-05-13T03:09:16.841Z,964.08
2023-05-13T03:10:16.841Z,964.07
2023-05-13T03:11:16.853Z,964.07
2023-05-13T03:12:16.825Z,964.01
2023-05-13T03:13:16.827Z,964.06
2023-05-13T03:14:16.781Z,964.08
2023-05-13T03:15:16.783Z,964.06
2023-05-13T03:16:16.791Z,964.06
2023-05-13T03:17:16.742Z,964.04
2023-05-13T03:18:16.746Z,964.05
2023-05-13T03:19:16.776Z,964.06
2023-05-13T03:20:16.729Z,964.11
2023-05-13T03:21:16.727Z,964.08
2023-05-13T03:22:16.723Z,964.10
2023-05-13T03:23:16.693Z,964.08
2023-05-13T03:24:16.676Z,964.12
2023-05-13T03:25:16.660Z,964.14
2023-05-13T03:26:16.708Z,964.10
2023-05-13T03:27:16.642Z,964.12
2023-05-13T03:28:16.645Z,964.14
2023-05-13T03:29:16.612Z,964.17
2023-05-13T03:30:16.602Z,964.17
2023-05-13T03:31:16.638Z,964.15
2023-05-13T03:32:16.576Z,964.20
2023-05-13T03:33:16.582Z,964.21
2023-05-13T03:34:16.567Z,964.22
2023-05-13T03:35:16.590Z,964.21
2023-05-13T03:36:16.525Z,964.22
2023-05-13T03:37:16.519Z,964.24
2023-05-13T03:38:16.526Z,964.25
2023-05-13T03:39:16.525Z,964.23
2023-05-13T03:40:16.501Z,964.24
2023-05-13T03:41:16.550Z,964.27
2023-05-13T03:42:16.484Z,964.20
2023-05-13T03:43:16.477Z,964.24
2023-05-13T03:44:16.458Z,964.22
2023-05-13T03:45:16.451Z,964.28
2023-05-13T03:46:16.502Z,964.25
2023-05-13T03:47:16.408Z,964.24
2023-05-13T03:48:16.416Z,964.23
2023-05-13T03:49:16.385Z,964.25
2023-05-13T03:50:16.392Z,964.25
2023-05-13T03:51:16.360Z,964.25
2023-05-13T03:52:16.398Z,964.24
2023-05-13T03:53:16.373Z,964.26
2023-05-13T03:54:16.359Z,964.26
2023-05-13T03:55:16.344Z,964.25
2023-05-13T03:56:16.323Z,964.22
2023-05-13T03:57:16.327Z,964.23
2023-05-13T03:58:16.343Z,964.23
2023-05-13T03:59:16.295Z,964.29
2023-05-13T04:00:16.277Z,964.25
2023-05-13T04:01:16.270Z,964.24
2023-05-13T04:02:16.305Z,964.23
2023-05-13T04:03:16.404Z,964.23
2023-05-13T04:04:16.233Z,964.26
2023-05-13T04:05:16.396Z,964.23
2023-05-13T04:06:16.228Z,964.25
2023-05-13T04:07:16.204Z,964.23
2023-05-13T04:08:16.192Z,964.23
2023-05-13T04:09:16.220Z,964.24
2023-05-13T04:10:16.244Z,964.22
2023-05-13T04:11:16.149Z,964.28
2023-05-13T04:12:16.153Z,964.23
2023-05-13T04:13:16.130Z,964.26
2023-05-13T04:14:16.124Z,964.24
2023-05-13T04:15:16.114Z,964.29
2023-05-13T04:16:16.114Z,964.28
2023-05-13T04:17:16.189Z,964.34
2023-05-13T04:18:16.076Z,964.26
2023-05-13T04:19:16.132Z,964.29
2023-05-13T04:20:16.060Z,964.34
2023-05-13T04:21:16.044Z,964.29
2023-05-13T04:22:16.030Z,964.31
2023-05-13T04:23:16.015Z,964.31
2023-05-13T04:24:16.021Z,964.32
2023-05-13T04:25:16.049Z,964.32
2023-05-13T04:26:15.978Z,964.34
2023-05-13T04:27:15.978Z,964.37
2023-05-13T04:28:15.960Z,964.35
2023-05-13T04:29:15.948Z,964.38
2023-05-13T04:30:15.971Z,964.36
2023-05-13T04:31:15.972Z,964.39
2023-05-13T04:32:16.235Z,964.38
2023-05-13T04:33:15.909Z,964.35
2023-05-13T04:34:15.895Z,964.36
2023-05-13T04:35:15.911Z,964.43
2023-05-13T04:36:15.873Z,964.40
2023-05-13T04:37:15.861Z,964.39
2023-05-13T04:38:15.852Z,964.43
2023-05-13T04:39:15.853Z,964.44
2023-05-13T04:40:15.848Z,964.47
2023-05-13T04:41:15.815Z,964.47
2023-05-13T04:42:15.812Z,964.46
2023-05-13T04:43:15.784Z,964.47
2023-05-13T04:44:15.788Z,964.48
2023-05-13T04:45:15.791Z,964.49
2023-05-13T04:46:15.770Z,964.50
2023-05-13T04:47:15.762Z,964.49
2023-05-13T04:48:15.746Z,964.49
2023-05-13T04:49:15.739Z,964.46
2023-05-13T04:50:15.749Z,964.49
2023-05-13T04:51:15.731Z,964.43
2023-05-13T04:52:15.689Z,964.47
2023-05-13T04:53:15.666Z,964.49
2023-05-13T04:54:15.675Z,964.47
2023-05-13T04:55:15.673Z,964.48
2023-05-13T04:56:15.638Z,964.51
2023-05-13T04:57:15.624Z,964.54
2023-05-13T04:58:15.625Z,964.52
2023-05-13T04:59:15.614Z,964.50
2023-05-13T05:00:15.604Z,964.49
2023-05-13T05:01:15.591Z,964.55
2023-05-13T05:02:15.584Z,964.53
2023-05-13T05:03:15.556Z,964.55
2023-05-13T05:04:15.655Z,964.51
2023-05-13T05:05:18.137Z,964.55
2023-05-13T05:06:15.532Z,964.56
2023-05-13T05:07:15.586Z,964.51
2023-05-13T05:08:15.516Z,964.57
2023-05-13T05:09:15.538Z,964.59
2023-05-13T05:10:15.552Z,964.57
2023-05-13T05:11:15.493Z,964.62
2023-05-13T05:12:15.456Z,964.66
2023-05-13T05:13:15.479Z,964.68
2023-05-13T05:14:15.437Z,964.69
2023-05-13T05:15:15.482Z,964.68
2023-05-13T05:16:15.456Z,964.70
2023-05-13T05:17:15.469Z,964.71
2023-05-13T05:18:15.466Z,964.69
2023-05-13T05:19:15.426Z,964.70
2023-05-13T05:20:15.387Z,964.68
2023-05-13T05:21:15.356Z,964.76
2023-05-13T05:22:15.354Z,964.75
2023-05-13T05:23:15.381Z,964.72
2023-05-13T05:24:15.322Z,964.77
2023-05-13T05:25:15.325Z,964.76
2023-05-13T05:26:15.327Z,964.75
2023-05-13T05:27:15.284Z,964.74
2023-05-13T05:28:15.291Z,964.72
2023-05-13T05:29:15.326Z,964.76
2023-05-13T05:30:15.260Z,964.82
2023-05-13T05:31:15.276Z,964.78
2023-05-13T05:32:15.267Z,964.78
2023-05-13T05:33:15.268Z,964.79
2023-05-13T05:34:15.243Z,964.74
2023-05-13T05:35:15.247Z,964.78
2023-05-13T05:36:15.209Z,964.78
2023-05-13T05:37:15.187Z,964.80
2023-05-13T05:38:15.239Z,964.77
2023-05-13T05:39:15.163Z,964.78
2023-05-13T05:40:15.176Z,964.82
2023-05-13T05:41:15.167Z,964.84
2023-05-13T05:42:15.135Z,964.82
2023-05-13T05:43:15.145Z,964.83
2023-05-13T05:44:15.122Z,964.84
2023-05-13T05:45:15.079Z,964.83
2023-05-13T05:46:15.127Z,964.85
2023-05-13T05:47:15.079Z,964.86
2023-05-13T05:48:15.073Z,964.88
2023-05-13T05:49:15.044Z,964.87
2023-05-13T05:50:15.032Z,964.89
2023-05-13T05:51:15.019Z,964.89
2023-05-13T05:52:15.016Z,964.95
2023-05-13T05:53:15.014Z,964.89
2023-05-13T05:54:15.015Z,964.89
2023-05-13T05:55:14.986Z,964.96
2023-05-13T05:56:14.977Z,964.93
2023-05-13T05:57:14.997Z,964.90
2023-05-13T05:58:14.975Z,964.94
2023-05-13T05:59:14.950Z,964.93
2023-05-13T06:00:14.938Z,964.95
2023-05-13T06:01:14.909Z,964.95
2023-05-13T06:02:14.972Z,964.93
2023-05-13T06:03:15.147Z,964.92
2023-05-13T06:04:14.977Z,964.97
2023-05-13T06:05:14.890Z,964.94
2023-05-13T06:06:14.845Z,964.97
2023-05-13T06:07:14.896Z,964.96
2023-05-13T06:08:14.834Z,965.00
2023-05-13T06:09:14.829Z,965.02
2023-05-13T06:10:14.821Z,965.02
2023-05-13T06:11:14.812Z,965.03
2023-05-13T06:12:14.789Z,965.00
2023-05-13T06:13:14.825Z,965.01
2023-05-13T06:14:14.781Z,965.03
2023-05-13T06:15:14.770Z,965.10
2023-05-13T06:16:14.753Z,965.09
2023-05-13T06:17:14.743Z,965.11
2023-05-13T06:18:14.741Z,965.14
2023-05-13T06:19:14.805Z,965.16
2023-05-13T06:20:14.740Z,965.14
2023-05-13T06:21:14.686Z,965.13
2023-05-13T06:22:14.690Z,965.12
2023-05-13T06:23:14.665Z,965.16
2023-05-13T06:24:14.656Z,965.14
2023-05-13T06:25:14.654Z,965.11
2023-05-13T06:26:14.639Z,965.18
2023-05-13T06:27:14.606Z,965.16
2023-05-13T06:28:14.615Z,965.20
2023-05-13T06:29:14.622Z,965.16
2023-05-13T06:30:14.584Z,965.16
2023-05-13T06:31:14.651Z,965.20
2023-05-13T06:32:14.565Z,965.18
2023-05-13T06:33:14.592Z,965.21
2023-05-13T06:34:14.547Z,965.19
2023-05-13T06:35:14.543Z,965.16
2023-05-13T06:36:14.519Z,965.16
2023-05-13T06:37:14.504Z,965.17
2023-05-13T06:38:14.498Z,965.16
2023-05-13T06:39:14.515Z,965.18
2023-05-13T06:40:14.505Z,965.20
2023-05-13T06:41:14.464Z,965.19
2023-05-13T06:42:14.544Z,965.19
2023-05-13T06:43:14.437Z,965.19
2023-05-13T06:44:14.459Z,965.17
2023-05-13T06:45:14.423Z,965.20
2023-05-13T06:46:14.409Z,965.23
2023-05-13T06:47:14.486Z,965.23
2023-05-13T06:48:14.453Z,965.19
2023-05-13T06:49:14.398Z,965.21
2023-05-13T06:50:14.357Z,965.17
2023-05-13T06:51:14.356Z,965.21
2023-05-13T06:52:14.348Z,965.18
2023-05-13T06:53:14.320Z,965.22
2023-05-13T06:54:14.330Z,965.23
2023-05-13T06:55:14.315Z,965.21
2023-05-13T06:56:14.318Z,965.19
2023-05-13T06:57:14.287Z,965.19
2023-05-13T06:58:14.282Z,965.27
2023-05-13T06:59:14.265Z,965.19
2023-05-13T07:00:14.270Z,965.24
2023-05-13T07:01:14.277Z,965.21
2023-05-13T07:02:14.259Z,965.20
2023-05-13T07:03:14.230Z,965.21
2023-05-13T07:04:14.307Z,965.23
2023-05-13T07:05:14.207Z,965.21
2023-05-13T07:06:14.191Z,965.20
2023-05-13T07:07:14.167Z,965.22
2023-05-13T07:08:14.147Z,965.23
2023-05-13T07:09:14.130Z,965.23
2023-05-13T07:10:14.144Z,965.21
2023-05-13T07:11:14.147Z,965.23
2023-05-13T07:12:14.125Z,965.19
2023-05-13T07:13:14.100Z,965.23
2023-05-13T07:14:14.104Z,965.21
2023-05-13T07:15:14.108Z,965.20
2023-05-13T07:16:14.067Z,965.19
2023-05-13T07:17:14.123Z,965.19
2023-05-13T07:18:14.114Z,965.20
2023-05-13T07:19:14.137Z,965.19
2023-05-13T07:20:14.016Z,965.22
2023-05-13T07:21:14.015Z,965.22
2023-05-13T07:22:14.011Z,965.19
2023-05-13T07:23:14.069Z,965.19
2023-05-13T07:24:13.981Z,965.23
2023-05-13T07:25:13.956Z,965.23
2023-05-13T07:26:13.959Z,965.22
2023-05-13T07:27:13.978Z,965.24
2023-05-13T07:28:13.933Z,965.22
2023-05-13T07:29:13.979Z,965.28
2023-05-13T07:30:13.962Z,965.20
2023-05-13T07:31:14.072Z,965.20
2023-05-13T07:32:14.485Z,965.19
2023-05-13T07:33:13.978Z,965.25
2023-05-13T07:34:14.005Z,965.26
2023-05-13T07:35:13.845Z,965.20
2023-05-13T07:36:14.048Z,965.20
2023-05-13T07:37:14.052Z,965.23
2023-05-13T07:38:13.929Z,965.22
2023-05-13T07:39:14.126Z,965.23
2023-05-13T07:40:14.148Z,965.25
2023-05-13T07:41:14.358Z,965.22
2023-05-13T07:42:13.814Z,965.20
2023-05-13T07:43:14.196Z,965.23
2023-05-13T07:44:14.018Z,965.29
2023-05-13T07:45:14.124Z,965.32
2023-05-13T07:46:14.033Z,965.29
2023-05-13T07:47:14.164Z,965.29
2023-05-13T07:48:14.114Z,965.31
2023-05-13T07:49:14.015Z,965.28
2023-05-13T07:50:14.010Z,965.31
2023-05-13T07:51:14.035Z,965.34
2023-05-13T07:52:13.994Z,965.34
2023-05-13T07:53:13.946Z,965.35
2023-05-13T07:54:13.899Z,965.36
2023-05-13T07:55:13.972Z,965.36
2023-05-13T07:56:13.621Z,965.41
2023-05-13T07:57:13.623Z,965.30
2023-05-13T07:58:13.596Z,965.33
2023-05-13T07:59:13.599Z,965.33
2023-05-13T08:00:13.594Z,965.31
2023-05-13T08:01:13.581Z,965.34
2023-05-13T08:02:13.569Z,965.35
2023-05-13T08:03:13.657Z,965.33
2023-05-13T08:04:13.632Z,965.32
2023-05-13T08:05:13.568Z,965.32
2023-05-13T08:06:13.530Z,965.32
2023-05-13T08:07:13.510Z,965.30
2023-05-13T08:08:13.474Z,965.32
2023-05-13T08:09:13.462Z,965.28
2023-05-13T08:10:13.464Z,965.29
2023-05-13T08:11:13.465Z,965.29
2023-05-13T08:12:13.442Z,965.38
2023-05-13T08:13:13.431Z,965.34
2023-05-13T08:14:13.407Z,965.33
2023-05-13T08:15:13.416Z,965.35
2023-05-13T08:16:13.396Z,965.33
2023-05-13T08:17:13.383Z,965.28
2023-05-13T08:18:13.374Z,965.29
2023-05-13T08:19:13.449Z,965.31
2023-05-13T08:20:13.353Z,965.31
2023-05-13T08:21:13.352Z,965.29
2023-05-13T08:22:13.325Z,965.28
2023-05-13T08:23:13.343Z,965.28
2023-05-13T08:24:13.322Z,965.25
2023-05-13T08:25:13.330Z,965.24
2023-05-13T08:26:13.327Z,965.27
2023-05-13T08:27:13.281Z,965.23
2023-05-13T08:28:13.248Z,965.25
2023-05-13T08:29:13.241Z,965.26
2023-05-13T08:30:13.262Z,965.27
2023-05-13T08:31:13.252Z,965.28
2023-05-13T08:32:13.230Z,965.29
2023-05-13T08:33:13.225Z,965.26
2023-05-13T08:34:13.177Z,965.29
2023-05-13T08:35:13.162Z,965.30
2023-05-13T08:36:13.169Z,965.33
2023-05-13T08:37:13.169Z,965.29
2023-05-13T08:38:13.131Z,965.35
2023-05-13T08:39:13.131Z,965.32
2023-05-13T08:40:13.119Z,965.32
2023-05-13T08:41:13.107Z,965.29
2023-05-13T08:42:13.094Z,965.29
2023-05-13T08:43:13.139Z,965.31
2023-05-13T08:44:13.091Z,965.33
2023-05-13T08:45:13.071Z,965.34
2023-05-13T08:46:13.126Z,965.34
2023-05-13T08:47:13.082Z,965.34
2023-05-13T08:48:13.090Z,965.39
2023-05-13T08:49:13.052Z,965.35
2023-05-13T08:50:12.999Z,965.33
2023-05-13T08:51:13.014Z,965.37
2023-05-13T08:52:12.992Z,965.38
2023-05-13T08:53:12.989Z,965.38
2023-05-13T08:54:12.975Z,965.42
2023-05-13T08:55:12.945Z,965.41
2023-05-13T08:56:12.951Z,965.38
2023-05-13T08:57:12.929Z,965.38
2023-05-13T08:58:12.918Z,965.40
2023-05-13T08:59:12.913Z,965.39
2023-05-13T09:00:12.903Z,965.42
2023-05-13T09:01:12.921Z,965.42
2023-05-13T09:02:12.873Z,965.43
2023-05-13T09:03:12.883Z,965.47
2023-05-13T09:04:12.855Z,965.46
2023-05-13T09:05:12.925Z,965.48
2023-05-13T09:06:12.819Z,965.47
2023-05-13T09:07:12.826Z,965.48
2023-05-13T09:08:12.821Z,965.47
2023-05-13T09:09:12.792Z,965.49
2023-05-13T09:10:12.803Z,965.51
2023-05-13T09:11:12.777Z,965.47
2023-05-13T09:12:12.756Z,965.47
2023-05-13T09:13:12.764Z,965.47
2023-05-13T09:14:12.738Z,965.44
2023-05-13T09:15:12.722Z,965.45
2023-05-13T09:16:12.772Z,965.50
2023-05-13T09:17:12.716Z,965.47
2023-05-13T09:18:12.858Z,965.46
2023-05-13T09:19:12.835Z,965.47
2023-05-13T09:20:12.678Z,965.49
2023-05-13T09:21:12.673Z,965.49
2023-05-13T09:22:12.694Z,965.50
2023-05-13T09:23:12.654Z,965.49
2023-05-13T09:24:12.712Z,965.52
2023-05-13T09:25:12.665Z,965.48
2023-05-13T09:26:12.613Z,965.47
2023-05-13T09:27:12.589Z,965.50
2023-05-13T09:28:12.594Z,965.49
2023-05-13T09:29:12.570Z,965.51
2023-05-13T09:30:12.587Z,965.48
2023-05-13T09:31:12.581Z,965.49
2023-05-13T09:32:12.609Z,965.57
2023-05-13T09:33:12.550Z,965.54
2023-05-13T09:34:12.507Z,965.54
2023-05-13T09:35:12.490Z,965.54
2023-05-13T09:36:12.545Z,965.54
2023-05-13T09:37:12.464Z,965.49
2023-05-13T09:38:12.458Z,965.51
2023-05-13T09:39:12.493Z,965.48
2023-05-13T09:40:12.441Z,965.50
2023-05-13T09:41:12.449Z,965.49
2023-05-13T09:42:12.420Z,965.53
2023-05-13T09:43:12.438Z,965.52
2023-05-13T09:44:12.396Z,965.53
2023-05-13T09:45:12.400Z,965.56
2023-05-13T09:46:12.380Z,965.51
2023-05-13T09:47:12.412Z,965.51
2023-05-13T09:48:12.375Z,965.52
2023-05-13T09:49:12.346Z,965.51
2023-05-13T09:50:12.346Z,965.49
2023-05-13T09:51:12.308Z,965.51
2023-05-13T09:52:12.320Z,965.49
2023-05-13T09:53:12.303Z,965.52
2023-05-13T09:54:13.026Z,965.57
2023-05-13T09:55:12.293Z,965.57
2023-05-13T09:56:12.268Z,965.61
2023-05-13T09:57:12.258Z,965.58
2023-05-13T09:58:12.234Z,965.65
2023-05-13T09:59:12.263Z,965.64
2023-05-13T10:00:21.082Z,965.61
2023-05-13T10:01:12.262Z,965.61
2023-05-13T10:02:12.195Z,965.64
2023-05-13T10:03:12.279Z,965.65
2023-05-13T10:04:12.233Z,965.64
2023-05-13T10:05:12.181Z,965.66
2023-05-13T10:06:12.138Z,965.68
2023-05-13T10:07:12.136Z,965.67
2023-05-13T10:08:12.174Z,965.69
2023-05-13T10:09:12.118Z,965.66
2023-05-13T10:10:12.110Z,965.71
2023-05-13T10:11:13.596Z,965.70
2023-05-13T10:12:12.124Z,965.73
2023-05-13T10:13:12.085Z,965.71
2023-05-13T10:14:12.066Z,965.71
2023-05-13T10:15:12.056Z,965.74
2023-05-13T10:16:12.142Z,965.71
2023-05-13T10:17:12.040Z,965.71
2023-05-13T10:18:12.051Z,965.70
2023-05-13T10:19:12.128Z,965.72
2023-05-13T10:20:11.993Z,965.68
2023-05-13T10:21:12.003Z,965.74
2023-05-13T10:22:11.975Z,965.76
2023-05-13T10:23:11.975Z,965.76
2023-05-13T10:24:11.947Z,965.73
2023-05-13T10:25:11.966Z,965.73
2023-05-13T10:26:11.915Z,965.72
2023-05-13T10:27:11.914Z,965.70
2023-05-13T10:28:11.928Z,965.73
2023-05-13T10:29:11.926Z,965.72
2023-05-13T10:30:11.874Z,965.69
2023-05-13T10:31:11.882Z,965.69
2023-05-13T10:32:11.876Z,965.70
2023-05-13T10:33:11.925Z,965.72
2023-05-13T10:34:11.819Z,965.72
2023-05-13T10:35:11.816Z,965.72
2023-05-13T10:36:11.837Z,965.68
2023-05-13T10:37:11.820Z,965.73
2023-05-13T10:38:11.800Z,965.77
2023-05-13T10:39:11.793Z,965.76
2023-05-13T10:40:11.761Z,965.71
2023-05-13T10:41:11.766Z,965.72
2023-05-13T10:42:11.853Z,965.77
2023-05-13T10:43:11.751Z,965.72
2023-05-13T10:44:11.718Z,965.75
2023-05-13T10:45:11.738Z,965.76
2023-05-13T10:46:11.702Z,965.76
2023-05-13T10:47:11.744Z,965.75
2023-05-13T10:48:11.840Z,965.73
2023-05-13T10:49:11.671Z,965.72
2023-05-13T10:50:11.656Z,965.74
2023-05-13T10:51:11.626Z,965.75
2023-05-13T10:52:13.479Z,965.75
2023-05-13T10:53:11.610Z,965.77
2023-05-13T10:54:11.585Z,965.80
2023-05-13T10:55:11.628Z,965.78
2023-05-13T10:56:11.595Z,965.82
2023-05-13T10:57:11.571Z,965.81
2023-05-13T10:58:11.565Z,965.81
2023-05-13T10:59:11.577Z,965.87
2023-05-13T11:00:11.540Z,965.82
2023-05-13T11:01:11.645Z,965.82
2023-05-13T11:02:11.519Z,965.81
2023-05-13T11:03:11.622Z,965.78
2023-05-13T11:04:11.757Z,965.80
2023-05-13T11:05:11.530Z,965.80
2023-05-13T11:06:11.470Z,965.80
2023-05-13T11:07:11.475Z,965.78
2023-05-13T11:08:11.439Z,965.78
2023-05-13T11:09:11.429Z,965.77
2023-05-13T11:10:11.470Z,965.81
2023-05-13T11:11:11.415Z,965.84
2023-05-13T11:12:11.423Z,965.78
2023-05-13T11:13:11.391Z,965.82
2023-05-13T11:14:11.369Z,965.80
2023-05-13T11:15:11.408Z,965.79
2023-05-13T11:16:11.390Z,965.79
2023-05-13T11:17:11.359Z,965.79
2023-05-13T11:18:11.391Z,965.76
2023-05-13T11:19:11.390Z,965.77
2023-05-13T11:20:11.322Z,965.80
2023-05-13T11:21:11.355Z,965.75
2023-05-13T11:22:11.314Z,965.76
2023-05-13T11:23:11.286Z,965.77
2023-05-13T11:24:11.258Z,965.76
2023-05-13T11:25:11.316Z,965.77
2023-05-13T11:26:12.134Z,965.77
2023-05-13T11:27:11.253Z,965.81
2023-05-13T11:28:11.217Z,965.81
2023-05-13T11:29:11.218Z,965.77
2023-05-13T11:30:11.216Z,965.81
2023-05-13T11:31:11.210Z,965.79
2023-05-13T11:32:11.177Z,965.83
2023-05-13T11:33:11.185Z,965.83
2023-05-13T11:34:11.155Z,965.83
2023-05-13T11:35:11.160Z,965.83
2023-05-13T11:36:11.136Z,965.81
2023-05-13T11:37:11.115Z,965.85
2023-05-13T11:38:11.113Z,965.86
2023-05-13T11:39:11.099Z,965.83
2023-05-13T11:40:11.096Z,965.87
2023-05-13T11:41:11.084Z,965.80
2023-05-13T11:42:11.073Z,965.78
2023-05-13T11:43:11.079Z,965.79
2023-05-13T11:44:11.045Z,965.81
2023-05-13T11:45:11.036Z,965.86
2023-05-13T11:46:11.121Z,965.81
2023-05-13T11:47:10.994Z,965.84
2023-05-13T11:48:11.049Z,965.88
2023-05-13T11:49:10.997Z,965.86
2023-05-13T11:50:11.030Z,965.86
2023-05-13T11:51:11.011Z,965.89
2023-05-13T11:52:10.962Z,965.89
2023-05-13T11:53:10.965Z,965.89
2023-05-13T11:54:10.936Z,965.88
2023-05-13T11:55:10.959Z,965.91
2023-05-13T11:56:10.915Z,965.88
2023-05-13T11:57:10.897Z,965.88
2023-05-13T11:58:10.896Z,965.89
2023-05-13T11:59:10.904Z,965.88
2023-05-13T12:00:10.878Z,965.90
2023-05-13T12:01:10.901Z,965.91
2023-05-13T12:02:10.869Z,965.88
2023-05-13T12:03:10.869Z,965.89
2023-05-13T12:04:10.819Z,965.97
2023-05-13T12:05:10.885Z,965.92
2023-05-13T12:06:10.798Z,965.94
2023-05-13T12:07:10.793Z,965.94
2023-05-13T12:08:10.806Z,965.99
2023-05-13T12:09:10.852Z,965.99
2023-05-13T12:10:10.754Z,965.96
2023-05-13T12:11:10.722Z,965.97
2023-05-13T12:12:10.737Z,965.94
2023-05-13T12:13:10.715Z,965.93
2023-05-13T12:14:10.702Z,965.95
2023-05-13T12:15:10.704Z,965.99
2023-05-13T12:16:10.736Z,965.97
2023-05-13T12:17:10.686Z,965.94
2023-05-13T12:18:10.699Z,965.91
2023-05-13T12:19:10.763Z,965.97
2023-05-13T12:20:10.654Z,965.91
2023-05-13T12:21:10.610Z,966.00
2023-05-13T12:22:10.615Z,965.95
2023-05-13T12:23:10.626Z,965.94
2023-05-13T12:24:10.596Z,965.99
2023-05-13T12:25:10.583Z,965.90
2023-05-13T12:26:10.558Z,965.92
2023-05-13T12:27:11.578Z,965.87
2023-05-13T12:28:10.560Z,965.92